Pagina principale
METAR-TAF:

METAR-TAF

Aeroporti :

Meiringen, Svizzera

latitudine: 46-44-25N, longitudine: 8-06-36E, altezza: 577 m

Osservazione

Il bollettino è stato emesso 22 minuti fa, alle 07:50 UTC
Vento 2 kt da direzioni variabili
Temperature 19°C
Umidità 60%
Pressione 1021 hPa
Visibilità 10 km o più
Poco nuvoloso ad un'altezza di 7400 ft

METAR: LSMM 270750Z AUTO VRB02KT 9999NDV FEW074 19/11 Q1021 RMK

Ora: 10:12 (08:12 UTC)


TAF: mancante

Osservazioni e previsioni meteorologiche di più di 4000 aeroporti (messaggi METAR e TAF).

Le stazioni disponibili sono rappresentate dai dischi gialli e rossi sulla carta.

Puntare il mouse per vedere il nome della stazione.

Clicca sopra per visualizzare le osservazioni e previsioni meteorologiche.

Per cambiare la mappa : fare clic sui pulsanti verdi con una croce nera per ingrandire, il pulsante verde con un trattino per diminuire, o sulla freccia verde per le mappe adiacenti.


METAR-TAF: